Terminal Aerodrome Forecast
Issued by NWS Sioux Falls, SD

Home | Current Version | Previous Version | Text Only | Print | Product List | Glossary Off
Versions: 1 2 3 4 5 6 7 8 9 10 11 12 13 14 15 16 17 18 19 20 21 22 23 24 25 26 27 28

000
FTUS43 KFSD 211100
TAFFSD
TAF
KFSD 211126Z 2112/2212 13005KT P6SM FEW250
     FM211600 16012KT P6SM SCT035 BKN150
     FM220500 22004KT P6SM SCT200
     FM221000 35010KT P6SM SKC=

USA.gov is the U.S. government's official web portal to all federal, state and local government web resources and services.